Time;durP1;ratioP1;P1;durP2;ratioP2;P2;SDS_P1;SDS_P2;PMS_P1;PMS_P2;Temp;Humidity;BMP_temperature;BMP_pressure;BME280_temperature;BME280_humidity;BME280_pressure;Samples;Min_cycle;Max_cycle;Signal;HPM_P1;HPM_P2
2022/03/05 00:01:23;;;;;;;9.02;4.57;;;-3276.40;84.80;;;;;;5030655;28;20032;-45
2022/03/05 00:03:50;;;;;;;8.18;6.00;;;-3276.40;84.90;;;;;;5048657;28;20050;-49
2022/03/05 00:06:18;;;;;;;7.57;4.72;;;-3276.40;84.90;;;;;;5048385;28;20101;-48
2022/03/05 00:08:45;;;;;;;9.05;4.85;;;-3276.40;84.90;;;;;;5048879;28;20025;-46
2022/03/05 00:11:11;;;;;;;9.43;5.15;;;-3276.40;85.00;;;;;;5049039;28;20043;-44
2022/03/05 00:13:37;;;;;;;8.23;4.85;;;-3276.40;85.00;;;;;;5048930;28;20044;-44
2022/03/05 00:16:05;;;;;;;7.78;4.47;;;-3276.30;84.90;;;;;;5049336;28;20053;-47
2022/03/05 00:18:33;;;;;;;8.73;5.30;;;-3276.30;84.90;;;;;;5027540;28;20049;-47
2022/03/05 00:21:01;;;;;;;9.75;5.57;;;-3276.30;84.90;;;;;;5029068;28;20047;-44
2022/03/05 00:23:28;;;;;;;8.38;4.97;;;-3276.30;85.00;;;;;;5030168;28;20026;-44
2022/03/05 00:25:58;;;;;;;10.05;5.20;;;-3276.30;84.90;;;;;;5033010;28;20034;-48
2022/03/05 00:28:25;;;;;;;;;;;-3276.30;84.90;;;;;;5033848;28;20025;-46
2022/03/05 00:30:58;;;;;;;6.82;4.82;;;-3276.30;85.00;;;;;;5033245;28;19948;-44
2022/03/05 00:33:24;;;;;;;8.00;5.05;;;-3276.30;84.90;;;;;;5025559;28;20359;-47
2022/03/05 00:35:52;;;;;;;8.48;5.40;;;-3276.30;85.10;;;;;;5032123;28;20048;-45
2022/03/05 00:38:18;;;;;;;10.05;5.32;;;-3276.30;85.20;;;;;;5031515;28;20052;-47
2022/03/05 00:40:46;;;;;;;6.80;4.78;;;-3276.30;85.10;;;;;;5031522;28;20045;-44
2022/03/05 00:43:14;;;;;;;8.07;5.07;;;-3276.30;85.20;;;;;;5032695;28;20109;-47
2022/03/05 00:45:41;;;;;;;11.30;6.32;;;-3276.30;85.20;;;;;;5033082;28;20452;-45
2022/03/05 00:48:08;;;;;;;8.32;5.60;;;-3276.30;85.50;;;;;;5015407;28;20026;-43
2022/03/05 00:50:33;;;;;;;8.45;5.30;;;-3276.30;85.60;;;;;;5032572;28;20383;-44
2022/03/05 00:52:59;;;;;;;9.35;5.80;;;-3276.40;85.80;;;;;;5032804;28;20121;-47
2022/03/05 00:55:26;;;;;;;10.32;5.60;;;-3276.40;86.00;;;;;;5032293;28;20033;-46
2022/03/05 00:57:52;;;;;;;7.97;5.43;;;-3276.40;85.80;;;;;;5014969;28;20029;-43
2022/03/05 01:00:20;;;;;;;8.43;4.95;;;-3276.40;85.80;;;;;;5030466;28;20044;-44
2022/03/05 01:02:47;;;;;;;10.07;5.70;;;-3276.30;85.70;;;;;;5023660;28;20415;-48
2022/03/05 01:05:12;;;;;;;8.40;5.90;;;-3276.30;85.60;;;;;;5031380;28;20029;-47
2022/03/05 01:07:39;;;;;;;13.00;6.18;;;-3276.30;85.80;;;;;;5032372;28;20039;-44
2022/03/05 01:10:08;;;;;;;8.18;5.70;;;-3276.30;86.00;;;;;;5030958;28;20026;-45
2022/03/05 01:12:46;;;;;;;7.20;5.10;;;-3276.30;85.90;;;;;;5015214;28;20038;-47
2022/03/05 01:15:15;;;;;;;12.90;6.20;;;-3276.30;85.90;;;;;;5047648;28;20466;-44
2022/03/05 01:17:44;;;;;;;10.38;5.97;;;-3276.30;86.00;;;;;;5040490;28;20144;-45
2022/03/05 01:20:16;;;;;;;11.18;6.07;;;-3276.40;86.20;;;;;;5051763;28;20033;-45
2022/03/05 01:22:44;;;;;;;9.13;6.05;;;-3276.40;86.20;;;;;;5032273;28;20034;-46
2022/03/05 01:25:11;;;;;;;9.25;5.97;;;-3276.30;86.10;;;;;;5048582;28;20046;-44
2022/03/05 01:27:38;;;;;;;10.20;6.88;;;-3276.30;85.90;;;;;;5051751;28;20040;-44
2022/03/05 01:30:10;;;;;;;13.50;7.05;;;-3276.30;86.00;;;;;;5051857;28;20021;-46
2022/03/05 01:32:39;;;;;;;10.32;6.55;;;-3276.30;86.00;;;;;;5050959;28;20066;-45
2022/03/05 01:35:07;;;;;;;8.95;6.47;;;-3276.30;86.00;;;;;;5032860;28;20124;-44
2022/03/05 01:37:33;;;;;;;12.23;6.53;;;-3276.30;85.80;;;;;;5051575;28;20037;-45
2022/03/05 01:40:06;;;;;;;7.28;5.72;;;-3276.30;85.90;;;;;;5051638;28;20103;-45
2022/03/05 01:42:33;;;;;;;9.48;6.13;;;-3276.30;86.10;;;;;;5051417;28;20028;-45
2022/03/05 01:45:03;;;;;;;8.52;6.03;;;-3276.30;86.10;;;;;;5051724;28;20029;-45
2022/03/05 01:47:30;;;;;;;7.95;6.50;;;-3276.30;86.10;;;;;;5051238;28;20053;-45
2022/03/05 01:49:56;;;;;;;9.98;6.40;;;-3276.20;86.10;;;;;;5050858;28;20040;-45
2022/03/05 01:52:24;;;;;;;10.60;6.95;;;-3276.20;86.10;;;;;;5050497;28;20033;-47
2022/03/05 01:54:50;;;;;;;10.85;7.13;;;-3276.20;86.20;;;;;;5051044;28;20036;-47
2022/03/05 01:57:17;;;;;;;11.82;7.22;;;-3276.20;86.30;;;;;;5050260;28;20090;-45
2022/03/05 01:59:45;;;;;;;11.40;7.90;;;-3276.30;86.60;;;;;;5051156;28;20142;-46
2022/03/05 02:02:10;;;;;;;12.25;7.72;;;-3276.30;86.80;;;;;;5032938;28;20346;-45
2022/03/05 02:04:38;;;;;;;13.02;6.93;;;-3276.30;86.60;;;;;;5017057;28;20025;-44
2022/03/05 02:07:07;;;;;;;10.73;6.93;;;-3276.30;86.50;;;;;;5050880;28;20454;-44
2022/03/05 02:09:35;;;;;;;11.23;7.20;;;-3276.20;86.40;;;;;;5033713;28;20399;-45
2022/03/05 02:12:01;;;;;;;16.67;7.68;;;-3276.20;86.40;;;;;;5033733;28;20069;-45
2022/03/05 02:14:38;;;;;;;12.88;7.97;;;-3276.10;86.30;;;;;;5050988;28;20056;-47
2022/03/05 02:17:04;;;;;;;11.43;7.88;;;-3276.10;86.40;;;;;;5050407;28;20081;-44
2022/03/05 02:19:36;;;;;;;12.48;7.55;;;-3276.10;86.30;;;;;;5050990;28;20035;-45
2022/03/05 02:22:06;;;;;;;16.88;8.48;;;-3276.10;86.60;;;;;;5050715;28;20025;-45
2022/03/05 02:24:34;;;;;;;10.02;7.53;;;-3276.10;86.60;;;;;;5050905;28;20036;-48
2022/03/05 02:27:02;;;;;;;8.75;6.45;;;-3276.10;86.60;;;;;;5050388;28;20100;-44
2022/03/05 02:29:31;;;;;;;11.95;7.38;;;-3276.10;86.70;;;;;;5033399;28;20033;-45
2022/03/05 02:31:58;;;;;;;9.07;6.72;;;-3276.20;86.80;;;;;;5016173;28;20469;-46
2022/03/05 02:34:24;;;;;;;11.73;7.55;;;-3276.20;86.80;;;;;;5050851;28;20128;-48
2022/03/05 02:36:51;;;;;;;9.68;6.97;;;-3276.20;86.80;;;;;;5049592;28;20048;-45
2022/03/05 02:39:18;;;;;;;9.18;7.25;;;-3276.20;86.80;;;;;;5050519;28;20050;-44
2022/03/05 02:41:45;;;;;;;9.15;6.65;;;-3276.10;86.70;;;;;;5032681;28;20102;-45
2022/03/05 02:44:12;;;;;;;9.68;6.70;;;-3276.10;86.70;;;;;;5050533;28;20032;-44
2022/03/05 02:46:37;;;;;;;12.43;7.32;;;-3276.10;86.80;;;;;;5049974;28;20041;-46
2022/03/05 02:49:03;;;;;;;9.77;7.03;;;-3276.10;86.80;;;;;;5050242;28;20104;-45
2022/03/05 02:51:31;;;;;;;10.57;7.30;;;-3276.10;86.60;;;;;;5050074;28;20040;-45
2022/03/05 02:53:56;;;;;;;11.40;6.63;;;-3276.10;86.70;;;;;;5032523;28;20431;-44
2022/03/05 02:56:23;;;;;;;12.55;6.72;;;-3276.00;86.60;;;;;;5049500;28;20052;-45
2022/03/05 02:58:50;;;;;;;12.35;6.47;;;-3276.10;86.70;;;;;;5031043;28;20357;-44
2022/03/05 03:01:16;;;;;;;11.27;7.50;;;-3276.10;87.00;;;;;;5039621;28;20032;-45
2022/03/05 03:03:42;;;;;;;9.40;6.40;;;-3276.10;87.10;;;;;;5050658;28;20029;-45
2022/03/05 03:06:10;;;;;;;10.13;6.68;;;-3276.10;86.80;;;;;;5050259;28;20047;-44
2022/03/05 03:08:37;;;;;;;13.75;6.75;;;-3276.10;86.90;;;;;;5050608;28;20473;-45
2022/03/05 03:11:04;;;;;;;10.57;6.90;;;-3276.20;86.90;;;;;;5050495;28;20044;-47
2022/03/05 03:13:31;;;;;;;12.30;7.03;;;-3276.20;87.00;;;;;;5032834;28;20033;-44
2022/03/05 03:15:58;;;;;;;9.18;6.28;;;-3276.20;87.10;;;;;;5032682;28;20108;-46
2022/03/05 03:18:25;;;;;;;9.05;6.88;;;-3276.20;87.00;;;;;;5050293;28;20500;-45
2022/03/05 03:20:52;;;;;;;10.50;6.15;;;-3276.20;87.10;;;;;;5050186;28;20051;-43
2022/03/05 03:23:21;;;;;;;11.98;6.45;;;-3276.20;87.10;;;;;;5033008;28;20039;-44
2022/03/05 03:25:49;;;;;;;10.40;6.18;;;-3276.30;87.20;;;;;;5032634;28;20061;-44
2022/03/05 03:28:19;;;;;;;10.32;7.10;;;-3276.20;87.00;;;;;;5032865;28;20457;-46
2022/03/05 03:30:47;;;;;;;11.25;6.80;;;-3276.20;87.00;;;;;;5050215;28;20374;-46
2022/03/05 03:33:13;;;;;;;8.68;5.68;;;-3276.20;87.10;;;;;;5030506;28;20033;-45
2022/03/05 03:35:40;;;;;;;10.55;6.53;;;-3276.20;87.10;;;;;;5045767;28;20119;-44
2022/03/05 03:38:07;;;;;;;8.02;5.35;;;-3276.20;87.10;;;;;;5032417;28;20090;-45
2022/03/05 03:40:35;;;;;;;12.05;6.32;;;-3276.10;87.00;;;;;;5049981;28;20028;-46
2022/03/05 03:43:02;;;;;;;11.63;6.13;;;-3276.10;87.00;;;;;;5032662;28;20029;-45
2022/03/05 03:45:29;;;;;;;10.10;6.30;;;-3276.10;86.70;;;;;;5049351;28;20040;-45
2022/03/05 03:47:56;;;;;;;9.90;6.40;;;-3276.10;86.90;;;;;;5049477;28;20135;-47
2022/03/05 03:50:23;;;;;;;10.85;6.63;;;-3276.10;87.10;;;;;;5031759;28;20033;-44
2022/03/05 03:52:50;;;;;;;10.13;6.03;;;-3276.10;87.00;;;;;;5032302;28;20342;-45
2022/03/05 03:55:18;;;;;;;11.05;6.93;;;-3276.10;87.00;;;;;;5015556;28;20076;-45
2022/03/05 03:57:49;;;;;;;10.82;6.53;;;-3276.10;86.70;;;;;;5011610;28;20071;-45
2022/03/05 04:00:17;;;;;;;9.93;5.82;;;-3276.10;86.90;;;;;;5012470;28;20029;-45
2022/03/05 04:02:44;;;;;;;9.93;5.80;;;-3276.10;87.00;;;;;;5045949;28;20124;-46
2022/03/05 04:05:16;;;;;;;9.30;6.28;;;-3276.10;87.00;;;;;;5050035;28;20135;-49
2022/03/05 04:10:26;;;;;;;8.95;5.82;;;-3276.10;87.10;;;;;;5049643;28;20036;-51
2022/03/05 04:12:54;;;;;;;12.30;6.75;;;-3276.10;87.30;;;;;;5032120;28;20446;-44
2022/03/05 04:15:22;;;;;;;7.22;5.60;;;-3276.20;87.30;;;;;;5031899;28;20094;-48
2022/03/05 04:17:50;;;;;;;11.20;5.45;;;-3276.20;87.30;;;;;;5049704;28;20347;-45
2022/03/05 04:20:19;;;;;;;9.98;5.38;;;-3276.20;87.30;;;;;;5049709;28;20449;-44
2022/03/05 04:22:50;;;;;;;9.10;5.32;;;-3276.20;87.20;;;;;;5029427;28;20050;-45
2022/03/05 04:25:19;;;;;;;10.30;5.38;;;-3276.20;87.20;;;;;;5029934;28;20025;-44
2022/03/05 04:27:45;;;;;;;8.35;4.97;;;-3276.20;87.20;;;;;;5040484;28;20438;-46
2022/03/05 04:30:15;;;;;;;8.40;4.78;;;-3276.20;87.20;;;;;;5049514;28;20430;-46
2022/03/05 04:32:42;;;;;;;9.25;5.40;;;-3276.20;87.10;;;;;;5012239;28;20120;-45
2022/03/05 04:35:09;;;;;;;7.03;4.47;;;-3276.20;87.10;;;;;;5029734;28;20124;-45
2022/03/05 04:37:37;;;;;;;9.90;4.80;;;-3276.20;87.20;;;;;;5029760;28;20033;-44
2022/03/05 04:40:05;;;;;;;9.65;4.68;;;-3276.20;87.10;;;;;;5029579;28;20025;-45
2022/03/05 04:42:33;;;;;;;9.45;4.75;;;-3276.10;87.10;;;;;;5049222;28;20021;-48
2022/03/05 04:44:58;;;;;;;11.70;5.05;;;-3276.20;87.10;;;;;;5049468;28;20108;-46
2022/03/05 04:47:25;;;;;;;22.15;5.20;;;-3276.10;87.10;;;;;;5049217;28;20480;-48
2022/03/05 04:49:52;;;;;;;11.35;5.70;;;-3276.10;87.10;;;;;;5049556;28;20033;-49
2022/03/05 04:52:18;;;;;;;6.82;5.13;;;-3276.10;86.90;;;;;;5048866;28;20048;-48
2022/03/05 04:54:47;;;;;;;9.23;5.30;;;-3276.10;87.00;;;;;;5049020;28;20029;-47
2022/03/05 04:57:16;;;;;;;;;;;-3276.10;87.00;;;;;;5049507;28;20035;-45
2022/03/05 04:59:44;;;;;;;7.97;5.00;;;-3276.10;86.90;;;;;;5049454;28;19904;-45
2022/03/05 05:02:09;;;;;;;7.20;4.57;;;-3276.10;86.90;;;;;;5048916;28;20045;-44
2022/03/05 05:04:37;;;;;;;10.60;5.30;;;-3276.10;86.90;;;;;;5031555;28;20036;-46
2022/03/05 05:07:04;;;;;;;10.63;5.05;;;-3276.10;86.80;;;;;;5048572;28;20061;-45
2022/03/05 05:09:31;;;;;;;7.60;4.82;;;-3276.00;86.90;;;;;;5051137;28;20075;-47
2022/03/05 05:12:02;;;;;;;9.27;5.90;;;-3276.00;86.90;;;;;;5052401;28;20028;-47
2022/03/05 05:14:31;;;;;;;11.23;4.63;;;-3276.10;86.90;;;;;;5052750;28;20037;-46
2022/03/05 05:16:58;;;;;;;7.30;4.53;;;-3276.00;87.00;;;;;;5052307;28;20043;-46
2022/03/05 05:19:27;;;;;;;8.02;4.47;;;-3276.00;86.90;;;;;;5034816;28;20037;-50
2022/03/05 05:22:13;;;;;;;6.57;4.30;;;-3276.00;86.90;;;;;;5052181;28;20021;-44
2022/03/05 05:24:39;;;;;;;7.88;4.95;;;-3276.00;86.90;;;;;;5034527;28;20070;-45
2022/03/05 05:27:06;;;;;;;8.02;4.40;;;-3276.00;86.80;;;;;;5052681;28;20056;-47
2022/03/05 05:29:35;;;;;;;9.45;4.13;;;-3276.00;86.80;;;;;;5048761;28;20091;-46
2022/03/05 05:32:02;;;;;;;6.72;4.03;;;-3276.00;86.70;;;;;;5018427;28;20056;-46
2022/03/05 05:34:29;;;;;;;8.23;3.92;;;-3276.00;86.80;;;;;;5052327;28;20350;-46
2022/03/05 05:36:58;;;;;;;6.97;4.32;;;-3276.00;86.60;;;;;;5052109;28;20036;-44
2022/03/05 05:39:28;;;;;;;10.97;4.50;;;-3275.90;86.50;;;;;;5046066;28;20111;-44
2022/03/05 05:41:55;;;;;;;7.30;4.18;;;-3275.90;86.50;;;;;;5051195;28;20353;-45
2022/03/05 05:44:23;;;;;;;7.18;4.45;;;-3275.90;86.40;;;;;;5034353;28;20025;-47
2022/03/05 05:46:50;;;;;;;5.75;3.03;;;-3275.80;86.50;;;;;;5051980;28;20037;-45
2022/03/05 05:49:17;;;;;;;7.10;3.80;;;-3275.80;86.40;;;;;;5052306;28;20351;-45
2022/03/05 05:51:43;;;;;;;7.57;4.15;;;-3275.80;86.50;;;;;;5052044;28;20057;-45
2022/03/05 05:54:09;;;;;;;9.35;3.78;;;-3275.80;86.60;;;;;;5051809;28;20104;-47
2022/03/05 05:56:36;;;;;;;7.82;3.92;;;-3275.80;86.60;;;;;;5051459;28;20111;-48
2022/03/05 05:59:04;;;;;;;7.75;4.10;;;-3275.70;86.60;;;;;;5051716;28;20343;-44
2022/03/05 06:01:32;;;;;;;7.72;3.67;;;-3275.80;86.70;;;;;;5030792;28;20033;-44
2022/03/05 06:04:03;;;;;;;10.02;3.85;;;-3275.80;86.70;;;;;;5051401;28;20036;-48
2022/03/05 06:06:28;;;;;;;8.40;4.53;;;-3275.80;86.60;;;;;;5051743;28;20029;-46
2022/03/05 06:08:57;;;;;;;8.73;3.83;;;-3275.70;86.60;;;;;;5051331;28;20078;-45
2022/03/05 06:11:24;;;;;;;8.90;3.72;;;-3275.70;86.50;;;;;;5051728;28;20033;-45
2022/03/05 06:13:52;;;;;;;6.95;3.38;;;-3275.70;86.50;;;;;;5051374;28;20033;-45
2022/03/05 06:16:19;;;;;;;6.50;3.42;;;-3275.70;86.50;;;;;;5051602;28;20095;-45
2022/03/05 06:18:46;;;;;;;8.50;4.50;;;-3275.70;86.50;;;;;;5030300;28;20053;-44
2022/03/05 06:21:11;;;;;;;7.03;4.03;;;-3275.70;86.60;;;;;;5029456;28;20033;-45
2022/03/05 06:23:37;;;;;;;7.45;3.58;;;-3275.70;86.60;;;;;;5030704;28;20033;-45
2022/03/05 06:26:05;;;;;;;7.93;3.90;;;-3275.80;86.70;;;;;;5032038;28;20048;-44
2022/03/05 06:28:34;;;;;;;7.25;4.10;;;-3275.80;86.70;;;;;;5030583;28;20080;-46
2022/03/05 06:31:02;;;;;;;6.15;4.03;;;-3275.80;86.90;;;;;;5031134;28;20025;-45
2022/03/05 06:33:30;;;;;;;8.60;3.85;;;-3275.90;87.00;;;;;;5014193;28;20509;-45
2022/03/05 06:35:58;;;;;;;7.07;3.90;;;-3276.00;87.10;;;;;;5031306;28;20030;-44
2022/03/05 06:38:26;;;;;;;6.53;3.53;;;-3276.00;87.00;;;;;;5031491;28;20025;-48
2022/03/05 06:40:55;;;;;;;6.93;4.40;;;-3276.00;86.80;;;;;;5030981;28;20040;-45
2022/03/05 06:43:22;;;;;;;7.53;3.90;;;-3276.00;86.80;;;;;;5029891;28;20041;-45
2022/03/05 06:45:49;;;;;;;6.43;4.38;;;-3276.10;86.80;;;;;;5030708;28;20056;-45
2022/03/05 06:48:16;;;;;;;7.25;3.90;;;-3276.10;86.90;;;;;;5029885;28;20051;-44
2022/03/05 06:50:45;;;;;;;5.18;3.38;;;-3276.10;86.70;;;;;;5030684;28;20026;-48
2022/03/05 06:53:10;;;;;;;9.48;3.90;;;-3276.10;86.70;;;;;;5030107;28;20127;-46
2022/03/05 06:55:38;;;;;;;9.75;3.92;;;-3276.10;86.70;;;;;;5030630;28;20811;-46
2022/03/05 06:58:05;;;;;;;8.10;3.95;;;-3276.20;86.80;;;;;;5030816;28;20385;-44
2022/03/05 07:00:33;;;;;;;6.43;3.67;;;-3276.20;86.80;;;;;;5030888;28;20022;-45
2022/03/05 07:03:07;;;;;;;7.60;3.90;;;-3276.30;86.70;;;;;;5029285;28;20044;-46
2022/03/05 07:05:33;;;;;;;5.95;3.58;;;-3276.30;86.80;;;;;;5027219;28;20520;-45
2022/03/05 07:07:59;;;;;;;9.50;4.05;;;-3276.30;86.70;;;;;;5022344;28;20018;-45
2022/03/05 07:10:26;;;;;;;7.13;3.90;;;-3276.40;86.80;;;;;;5022124;28;20087;-47
2022/03/05 07:12:54;;;;;;;6.50;3.50;;;-3276.40;86.90;;;;;;5027637;28;20034;-46
2022/03/05 07:15:22;;;;;;;7.32;3.50;;;-3276.50;86.80;;;;;;5030628;28;20025;-46
2022/03/05 07:17:51;;;;;;;11.20;4.45;;;-3276.50;86.80;;;;;;5037051;28;20063;-46
2022/03/05 07:20:20;;;;;;;5.32;4.32;;;-3276.60;86.90;;;;;;5050395;28;20839;-48
2022/03/05 07:22:47;;;;;;;7.50;4.10;;;-3276.60;86.90;;;;;;5033533;28;20128;-50
2022/03/05 07:25:14;;;;;;;6.75;3.78;;;-3276.70;86.90;;;;;;5009488;28;20150;-47
2022/03/05 07:27:43;;;;;;;10.25;3.75;;;0.00;86.80;;;;;;5042159;28;20148;-46
2022/03/05 07:30:12;;;;;;;7.43;3.47;;;0.00;86.90;;;;;;5026442;28;20036;-45
2022/03/05 07:32:40;;;;;;;6.18;4.00;;;0.00;86.80;;;;;;5038931;28;20106;-48
2022/03/05 07:35:09;;;;;;;7.53;4.00;;;0.20;86.90;;;;;;5042824;28;20036;-45
2022/03/05 07:37:37;;;;;;;6.72;3.80;;;0.40;86.80;;;;;;5047156;28;20040;-46
2022/03/05 07:40:04;;;;;;;10.10;3.72;;;0.50;86.70;;;;;;5043836;28;20056;-48
2022/03/05 07:42:35;;;;;;;5.53;4.03;;;0.70;86.60;;;;;;5049693;28;20026;-44
2022/03/05 07:45:02;;;;;;;7.20;3.72;;;0.70;86.30;;;;;;5049950;28;20362;-46
2022/03/05 07:47:27;;;;;;;9.18;4.00;;;0.90;86.20;;;;;;5032693;28;20090;-45
2022/03/05 07:49:54;;;;;;;7.90;3.45;;;1.10;86.10;;;;;;5031786;28;20136;-44
2022/03/05 07:52:20;;;;;;;6.45;3.90;;;1.40;85.50;;;;;;4998986;28;20037;-45
2022/03/05 07:54:49;;;;;;;10.00;5.45;;;1.70;84.90;;;;;;5027927;28;20437;-46
2022/03/05 07:57:18;;;;;;;5.50;3.17;;;2.00;83.90;;;;;;5032370;28;20503;-43
2022/03/05 07:59:45;;;;;;;6.45;3.60;;;2.30;82.80;;;;;;5049531;28;20045;-45
2022/03/05 08:02:15;;;;;;;5.25;3.13;;;2.50;81.10;;;;;;5006362;28;20037;-44
2022/03/05 08:04:47;;;;;;;8.32;3.60;;;2.90;81.70;;;;;;5040774;28;20041;-44
2022/03/05 08:07:15;;;;;;;8.10;3.45;;;3.40;80.70;;;;;;5020942;28;20030;-45
2022/03/05 08:09:43;;;;;;;7.68;3.47;;;3.80;79.40;;;;;;5043995;28;20044;-44
2022/03/05 08:12:11;;;;;;;8.25;3.65;;;4.10;78.10;;;;;;5049397;28;20446;-42
2022/03/05 08:14:41;;;;;;;6.68;2.78;;;4.40;77.40;;;;;;5039036;28;20370;-47
2022/03/05 08:17:08;;;;;;;5.72;3.05;;;4.60;75.80;;;;;;5047478;28;20338;-43
2022/03/05 08:19:35;;;;;;;6.32;3.13;;;4.90;75.00;;;;;;5040464;28;20032;-44
2022/03/05 08:22:03;;;;;;;5.88;2.92;;;5.00;73.70;;;;;;5019802;28;20103;-44
2022/03/05 08:24:29;;;;;;;4.72;3.00;;;5.10;71.50;;;;;;5033942;28;20033;-43
2022/03/05 08:26:54;;;;;;;5.43;2.50;;;5.40;70.80;;;;;;5049593;28;20116;-44
2022/03/05 08:29:21;;;;;;;6.57;2.78;;;5.50;70.60;;;;;;5046609;28;20040;-44
2022/03/05 08:31:50;;;;;;;7.10;2.78;;;5.50;70.20;;;;;;5037988;28;20047;-44
2022/03/05 08:34:19;;;;;;;5.63;3.10;;;5.60;70.60;;;;;;5037170;28;20029;-44
2022/03/05 08:36:47;;;;;;;5.72;2.92;;;5.60;70.00;;;;;;5040257;28;20445;-45
2022/03/05 08:39:16;;;;;;;5.05;2.95;;;5.90;70.30;;;;;;5043344;28;20033;-47
2022/03/05 08:41:42;;;;;;;6.53;3.25;;;6.10;68.80;;;;;;5044551;28;20554;-44
2022/03/05 08:44:11;;;;;;;6.03;2.90;;;5.90;67.60;;;;;;5021158;28;20465;-47
2022/03/05 08:46:37;;;;;;;7.78;3.55;;;6.20;67.00;;;;;;5042336;28;20025;-44
2022/03/05 08:49:03;;;;;;;4.90;2.67;;;6.30;67.80;;;;;;5028886;28;20324;-48
2022/03/05 08:51:33;;;;;;;7.60;2.75;;;6.40;67.30;;;;;;5047239;28;20036;-49
2022/03/05 08:53:59;;;;;;;10.48;2.92;;;6.40;66.60;;;;;;5033013;28;20148;-44
2022/03/05 08:56:29;;;;;;;6.60;2.85;;;6.50;66.20;;;;;;5047386;28;20095;-46
2022/03/05 08:58:56;;;;;;;6.03;3.08;;;6.80;65.60;;;;;;5046898;28;20029;-51
2022/03/05 09:01:22;;;;;;;8.45;3.05;;;6.60;65.10;;;;;;5029143;28;20099;-44
2022/03/05 09:03:48;;;;;;;5.63;3.05;;;6.60;63.10;;;;;;5039789;28;20458;-45
2022/03/05 09:06:15;;;;;;;9.57;4.10;;;6.60;63.80;;;;;;5041409;28;20029;-45
2022/03/05 09:08:42;;;;;;;5.72;4.00;;;6.40;63.90;;;;;;5044428;28;20048;-47
2022/03/05 09:11:09;;;;;;;6.75;3.53;;;6.20;64.50;;;;;;5044023;28;20037;-50
2022/03/05 09:13:35;;;;;;;7.07;4.43;;;6.30;64.10;;;;;;5050848;28;20037;-46
2022/03/05 09:16:02;;;;;;;8.30;4.38;;;6.30;65.80;;;;;;5048150;28;20159;-47
2022/03/05 09:18:34;;;;;;;7.28;3.55;;;6.10;64.60;;;;;;5051606;28;20057;-49
2022/03/05 09:21:05;;;;;;;6.82;3.25;;;6.20;65.20;;;;;;5029701;28;20434;-44
2022/03/05 09:23:33;;;;;;;7.00;3.72;;;6.30;66.20;;;;;;5049905;28;20040;-47
2022/03/05 09:26:02;;;;;;;6.22;3.83;;;6.40;65.50;;;;;;5034233;28;20036;-46
2022/03/05 09:28:29;;;;;;;6.88;4.15;;;6.60;65.10;;;;;;5028085;28;20441;-47
2022/03/05 09:30:58;;;;;;;7.03;4.05;;;6.70;64.40;;;;;;5034138;28;20517;-49
2022/03/05 09:33:29;;;;;;;6.75;5.32;;;6.60;64.60;;;;;;5051419;28;20044;-44
2022/03/05 09:35:56;;;;;;;7.72;4.65;;;6.40;62.10;;;;;;5051665;28;20171;-43
2022/03/05 09:38:22;;;;;;;8.90;4.80;;;6.40;62.00;;;;;;5050863;28;20041;-45
2022/03/05 09:40:53;;;;;;;7.65;5.00;;;6.40;62.10;;;;;;5051477;28;20093;-49
2022/03/05 09:43:23;;;;;;;7.93;4.75;;;6.50;64.30;;;;;;5051783;28;20142;-44
2022/03/05 09:45:51;;;;;;;7.72;5.00;;;6.80;63.90;;;;;;5052419;28;20036;-49
2022/03/05 09:48:18;;;;;;;8.20;5.43;;;6.70;63.40;;;;;;5052080;28;20139;-47
2022/03/05 09:50:45;;;;;;;7.68;5.20;;;6.90;61.70;;;;;;5052324;28;20021;-45
2022/03/05 09:53:12;;;;;;;7.75;5.75;;;7.10;61.50;;;;;;5018019;28;20109;-45
2022/03/05 09:55:40;;;;;;;8.52;5.72;;;7.10;60.70;;;;;;5051081;28;20033;-46
2022/03/05 09:58:07;;;;;;;8.93;6.15;;;7.40;60.40;;;;;;5051692;28;20465;-46
2022/03/05 10:00:34;;;;;;;10.27;5.93;;;7.60;58.90;;;;;;5033960;28;20033;-48
2022/03/05 10:03:04;;;;;;;11.40;6.75;;;7.90;58.20;;;;;;5034481;28;20021;-44
2022/03/05 10:05:31;;;;;;;10.25;6.60;;;7.70;59.40;;;;;;5034391;28;20041;-45
2022/03/05 10:08:10;;;;;;;7.82;6.05;;;7.90;57.70;;;;;;5035131;28;20331;-44
2022/03/05 10:11:01;;;;;;;8.45;6.53;;;8.00;56.80;;;;;;5051726;28;20029;-47
2022/03/05 10:13:36;;;;;;;9.10;6.90;;;8.00;56.90;;;;;;5037481;28;20112;-43
2022/03/05 10:16:28;;;;;;;8.50;6.80;;;7.80;57.00;;;;;;5050724;28;20028;-46
2022/03/05 10:19:23;;;;;;;10.88;6.35;;;7.60;54.00;;;;;;5036155;28;20275;-42
2022/03/05 10:21:56;;;;;;;9.00;6.47;;;7.70;54.70;;;;;;5033792;28;20541;-47
2022/03/05 10:24:31;;;;;;;10.18;6.68;;;7.90;54.70;;;;;;5033657;28;20053;-47
2022/03/05 10:26:58;;;;;;;8.55;6.28;;;7.80;55.60;;;;;;5038724;28;20021;-45
2022/03/05 10:29:34;;;;;;;8.60;6.80;;;7.80;54.70;;;;;;5049766;28;20020;-44
2022/03/05 10:32:08;;;;;;;9.48;6.72;;;7.80;55.80;;;;;;5034972;28;20072;-45
2022/03/05 10:34:50;;;;;;;10.63;8.13;;;7.60;56.60;;;;;;5023031;28;20159;-44
2022/03/05 10:37:28;;;;;;;8.27;7.03;;;7.50;52.50;;;;;;5051181;28;20423;-46
2022/03/05 10:39:55;;;;;;;8.50;7.53;;;7.40;52.70;;;;;;5041636;28;20033;-47
2022/03/05 10:42:25;;;;;;;10.20;7.93;;;7.50;54.40;;;;;;5050520;28;20045;-46
2022/03/05 10:45:17;;;;;;;11.38;7.65;;;7.50;52.90;;;;;;5033287;28;20029;-43
2022/03/05 10:47:46;;;;;;;11.45;7.40;;;7.50;51.40;;;;;;5051148;28;20086;-47
2022/03/05 10:50:31;;;;;;;11.20;7.75;;;7.40;51.00;;;;;;5050968;28;20060;-46
2022/03/05 10:53:10;;;;;;;9.38;7.20;;;7.40;52.50;;;;;;5017584;28;20470;-44
2022/03/05 10:55:37;;;;;;;10.82;8.25;;;7.40;52.50;;;;;;5031643;28;20060;-46
2022/03/05 10:58:20;;;;;;;9.20;7.63;;;7.10;52.00;;;;;;5049738;28;20041;-46
2022/03/05 11:00:49;;;;;;;9.23;7.53;;;7.30;53.70;;;;;;5032084;28;20028;-47
2022/03/05 11:03:21;;;;;;;8.68;7.13;;;7.40;51.00;;;;;;5049079;28;20048;-43
2022/03/05 11:05:48;;;;;;;9.77;7.55;;;7.50;52.50;;;;;;5027394;28;20063;-47
2022/03/05 11:08:21;;;;;;;11.75;7.75;;;7.70;53.00;;;;;;5034865;28;20446;-46
2022/03/05 11:10:48;;;;;;;10.25;8.07;;;7.60;50.50;;;;;;5031691;28;20025;-43
2022/03/05 11:13:16;;;;;;;8.70;7.80;;;7.70;51.40;;;;;;5031976;28;20022;-45
2022/03/05 11:15:44;;;;;;;10.82;8.18;;;7.70;52.40;;;;;;5032200;28;20037;-43
2022/03/05 11:18:13;;;;;;;9.45;8.38;;;7.80;51.00;;;;;;5049146;28;20044;-42
2022/03/05 11:20:42;;;;;;;10.02;7.70;;;7.70;51.10;;;;;;5048966;28;20452;-43
2022/03/05 11:23:10;;;;;;;9.25;7.78;;;7.60;50.70;;;;;;5030084;28;20044;-45
2022/03/05 11:25:39;;;;;;;10.13;8.40;;;7.50;51.10;;;;;;5031597;28;20040;-43
2022/03/05 11:28:08;;;;;;;10.35;8.73;;;7.50;50.90;;;;;;5049884;28;20028;-44
2022/03/05 11:30:47;;;;;;;12.05;9.07;;;7.50;51.00;;;;;;5030814;28;20040;-43
2022/03/05 11:33:21;;;;;;;10.38;7.57;;;7.50;52.30;;;;;;5047397;28;20063;-43
2022/03/05 11:35:50;;;;;;;10.20;7.72;;;7.40;52.10;;;;;;5015256;28;20068;-44
2022/03/05 11:38:41;;;;;;;10.90;8.27;;;7.40;52.30;;;;;;5031611;28;20033;-44
2022/03/05 11:41:40;;;;;;;10.75;8.95;;;7.40;52.90;;;;;;5049165;28;20029;-45
2022/03/05 11:44:15;;;;;;;12.80;8.57;;;7.40;52.00;;;;;;5042782;28;20033;-47
2022/03/05 11:46:42;;;;;;;11.55;9.60;;;7.30;51.20;;;;;;5033008;28;20025;-44
2022/03/05 11:49:15;;;;;;;12.07;8.35;;;7.20;53.80;;;;;;5041993;28;20035;-47
2022/03/05 11:52:11;;;;;;;12.23;9.18;;;7.20;51.30;;;;;;5039634;28;20573;-44
2022/03/05 11:54:39;;;;;;;12.80;9.07;;;7.20;51.70;;;;;;5039755;28;20029;-44
2022/03/05 11:57:10;;;;;;;12.75;8.55;;;7.10;52.70;;;;;;5047171;28;20453;-43
2022/03/05 11:59:39;;;;;;;11.73;8.68;;;7.00;53.40;;;;;;5044162;28;20039;-44
2022/03/05 12:02:07;;;;;;;11.32;8.50;;;6.90;52.90;;;;;;5028433;28;20063;-48
2022/03/05 12:04:33;;;;;;;12.75;8.82;;;6.90;52.60;;;;;;5030931;28;20108;-45
2022/03/05 12:07:11;;;;;;;11.77;8.25;;;6.90;53.20;;;;;;5028233;28;20037;-44
2022/03/05 12:10:03;;;;;;;11.13;8.65;;;7.00;54.40;;;;;;5030194;28;20033;-46
2022/03/05 12:12:57;;;;;;;10.60;8.30;;;7.00;52.80;;;;;;5040392;28;20538;-46
2022/03/05 12:15:31;;;;;;;10.43;8.32;;;7.10;52.80;;;;;;5042909;28;20034;-44
2022/03/05 12:18:00;;;;;;;11.70;8.65;;;7.30;53.00;;;;;;5043556;28;20045;-43
2022/03/05 12:20:38;;;;;;;10.30;8.05;;;7.30;52.10;;;;;;5044648;28;20096;-45
2022/03/05 12:23:16;;;;;;;12.18;8.32;;;7.20;53.40;;;;;;5029627;28;20051;-43
2022/03/05 12:25:46;;;;;;;11.05;9.38;;;7.30;53.20;;;;;;5012350;28;20040;-46
2022/03/05 12:28:23;;;;;;;9.73;7.68;;;7.10;52.90;;;;;;5030263;28;20125;-44
2022/03/05 12:30:53;;;;;;;10.73;8.15;;;6.90;53.30;;;;;;5026168;28;20503;-46
2022/03/05 12:33:21;;;;;;;11.68;7.70;;;6.70;54.10;;;;;;5030777;28;20430;-43
2022/03/05 12:35:48;;;;;;;11.43;7.78;;;6.80;52.90;;;;;;5028647;28;20430;-43
2022/03/05 12:38:20;;;;;;;9.50;7.20;;;6.90;52.90;;;;;;5038049;28;20064;-43
2022/03/05 12:40:47;;;;;;;10.98;7.20;;;7.00;53.60;;;;;;5033890;28;20040;-43
2022/03/05 12:43:14;;;;;;;10.40;7.97;;;6.90;54.50;;;;;;5046939;28;20033;-43